createdAt,value
2022-10-25T00:02:24.373Z,46.50
2022-10-25T00:04:55.080Z,38.78
2022-10-25T00:07:23.369Z,41.72
2022-10-25T00:09:51.236Z,38.85
2022-10-25T00:12:19.462Z,36.28
2022-10-25T00:14:47.636Z,37.35
2022-10-25T00:17:15.863Z,40.97
2022-10-25T00:19:44.106Z,35.17
2022-10-25T00:22:12.856Z,46.30
2022-10-25T00:24:40.702Z,48.80
2022-10-25T00:27:09.124Z,39.58
2022-10-25T00:29:36.991Z,41.25
2022-10-25T00:32:05.725Z,46.03
2022-10-25T00:34:33.604Z,44.28
2022-10-25T00:37:02.037Z,41.83
2022-10-25T00:39:30.360Z,45.28
2022-10-25T00:41:58.767Z,43.58
2022-10-25T00:44:46.888Z,38.50
2022-10-25T00:47:23.647Z,50.13
2022-10-25T00:50:19.023Z,38.38
2022-10-25T00:52:49.604Z,39.25
2022-10-25T00:55:20.127Z,34.38
2022-10-25T00:57:59.865Z,39.85
2022-10-25T01:00:28.226Z,42.05
2022-10-25T01:05:29.751Z,33.88
2022-10-25T01:07:58.460Z,36.38
2022-10-25T01:10:26.968Z,38.83
2022-10-25T01:12:56.564Z,38.00
2022-10-25T01:15:30.549Z,31.95
2022-10-25T01:18:12.290Z,65.53
2022-10-25T01:20:51.454Z,46.72
2022-10-25T01:23:22.346Z,49.67
2022-10-25T01:26:27.585Z,40.22
2022-10-25T01:29:20.742Z,38.50
2022-10-25T01:31:54.542Z,40.38
2022-10-25T01:34:53.702Z,43.17
2022-10-25T01:37:36.910Z,37.25
2022-10-25T01:42:41.645Z,36.50
2022-10-25T01:45:22.188Z,31.02
2022-10-25T01:48:08.547Z,29.45
2022-10-25T01:50:41.113Z,35.60
2022-10-25T01:53:10.666Z,31.15
2022-10-25T01:55:48.249Z,32.25
2022-10-25T01:58:38.628Z,35.55
2022-10-25T02:01:11.286Z,34.42
2022-10-25T02:03:47.814Z,37.03
2022-10-25T02:06:47.881Z,33.55
2022-10-25T02:09:43.510Z,36.65
2022-10-25T02:12:15.865Z,35.58
2022-10-25T02:14:52.542Z,39.35
2022-10-25T02:17:23.963Z,39.50
2022-10-25T02:19:55.376Z,46.75
2022-10-25T02:22:27.768Z,40.85
2022-10-25T02:24:57.111Z,42.15
2022-10-25T02:27:26.749Z,39.03
2022-10-25T02:29:55.331Z,36.00
2022-10-25T02:32:23.893Z,40.10
2022-10-25T02:34:51.821Z,37.97
2022-10-25T02:37:19.760Z,31.48
2022-10-25T02:39:49.157Z,41.55
2022-10-25T02:42:17.600Z,33.42
2022-10-25T02:44:44.925Z,38.28
2022-10-25T02:47:13.363Z,37.78
2022-10-25T02:49:41.103Z,33.95
2022-10-25T02:52:08.869Z,32.80
2022-10-25T02:54:36.825Z,32.05
2022-10-25T02:57:05.041Z,35.67
2022-10-25T02:59:32.919Z,34.20
2022-10-25T03:02:01.326Z,34.60
2022-10-25T03:04:29.352Z,34.75
2022-10-25T03:06:57.762Z,35.13
2022-10-25T03:09:25.533Z,36.05
2022-10-25T03:11:53.485Z,33.92
2022-10-25T03:14:21.787Z,29.90
2022-10-25T03:16:50.267Z,36.72
2022-10-25T03:19:18.201Z,36.75
2022-10-25T03:21:46.094Z,35.47
2022-10-25T03:24:14.483Z,34.67
2022-10-25T03:26:42.426Z,30.77
2022-10-25T03:29:11.262Z,73.32
2022-10-25T03:31:40.669Z,62.38
2022-10-25T03:34:08.401Z,33.00
2022-10-25T03:36:36.190Z,34.63
2022-10-25T03:39:03.793Z,33.92
2022-10-25T03:41:31.545Z,32.15
2022-10-25T03:43:59.311Z,35.40
2022-10-25T03:46:27.649Z,39.25
2022-10-25T03:48:55.516Z,38.53
2022-10-25T03:51:23.996Z,29.92
2022-10-25T03:53:51.861Z,31.77
2022-10-25T03:56:19.662Z,32.72
2022-10-25T03:58:47.561Z,38.80
2022-10-25T04:01:16.104Z,36.65
2022-10-25T04:03:45.715Z,33.78
2022-10-25T04:06:13.804Z,38.28
2022-10-25T04:08:42.090Z,32.53
2022-10-25T04:11:10.264Z,34.47
2022-10-25T04:13:38.605Z,35.38
2022-10-25T04:16:10.191Z,31.60
2022-10-25T04:18:38.098Z,37.25
2022-10-25T04:21:06.787Z,33.00
2022-10-25T04:23:34.765Z,30.10
2022-10-25T04:26:03.590Z,33.20
2022-10-25T04:28:31.309Z,33.63
2022-10-25T04:30:59.411Z,32.55
2022-10-25T04:33:27.663Z,33.83
2022-10-25T04:35:57.215Z,33.85
2022-10-25T04:38:25.653Z,35.97
2022-10-25T04:40:58.078Z,37.60
2022-10-25T04:43:27.809Z,40.17
2022-10-25T04:45:55.792Z,34.55
2022-10-25T04:48:24.101Z,31.50
2022-10-25T04:50:52.013Z,34.30
2022-10-25T04:53:20.203Z,26.02
2022-10-25T04:55:59.014Z,28.05
2022-10-25T04:58:31.221Z,34.92
2022-10-25T05:01:02.402Z,33.35
2022-10-25T05:03:31.031Z,40.97
2022-10-25T05:06:07.469Z,29.40
2022-10-25T05:08:35.511Z,37.90
2022-10-25T05:11:03.905Z,34.42
2022-10-25T05:13:33.609Z,38.28
2022-10-25T05:16:01.974Z,32.15
2022-10-25T05:18:31.267Z,34.25
2022-10-25T05:21:04.540Z,32.45
2022-10-25T05:23:34.425Z,29.35
2022-10-25T05:26:19.971Z,29.70
2022-10-25T05:28:49.939Z,33.58
2022-10-25T05:31:24.190Z,39.67
2022-10-25T05:33:54.872Z,36.88
2022-10-25T05:36:23.613Z,36.35
2022-10-25T05:38:51.581Z,40.15
2022-10-25T05:41:20.075Z,34.85
2022-10-25T05:43:48.367Z,39.80
2022-10-25T05:46:21.557Z,46.35
2022-10-25T05:51:39.546Z,41.85
2022-10-25T05:54:11.790Z,42.58
2022-10-25T05:59:11.567Z,41.38
2022-10-25T06:01:42.001Z,41.65
2022-10-25T06:04:10.811Z,42.97
2022-10-25T06:06:40.512Z,42.72
2022-10-25T06:09:09.100Z,41.67
2022-10-25T06:11:38.779Z,37.03
2022-10-25T06:14:07.269Z,42.58
2022-10-25T06:16:38.003Z,43.47
2022-10-25T06:19:06.928Z,45.08
2022-10-25T06:21:36.665Z,39.90
2022-10-25T06:24:05.300Z,42.22
2022-10-25T06:26:34.760Z,44.33
2022-10-25T06:29:04.511Z,40.33
2022-10-25T06:31:34.167Z,37.17
2022-10-25T06:34:03.085Z,41.63
2022-10-25T06:36:33.028Z,42.97
2022-10-25T06:39:05.361Z,36.53
2022-10-25T06:41:39.232Z,32.83
2022-10-25T06:44:09.264Z,42.42
2022-10-25T06:49:28.293Z,33.72
2022-10-25T06:51:56.628Z,35.28
2022-10-25T06:54:27.277Z,33.55
2022-10-25T06:56:55.282Z,33.40
2022-10-25T06:59:23.871Z,31.90
2022-10-25T07:01:52.692Z,30.80
2022-10-25T07:04:21.240Z,30.90
2022-10-25T07:06:52.762Z,27.27
2022-10-25T07:09:23.370Z,26.52
2022-10-25T07:11:52.265Z,22.95
2022-10-25T07:14:20.233Z,28.83
2022-10-25T07:16:48.676Z,25.05
2022-10-25T07:19:17.352Z,27.70
2022-10-25T07:21:46.054Z,23.05
2022-10-25T07:24:13.904Z,29.88
2022-10-25T07:26:42.427Z,20.60
2022-10-25T07:29:13.265Z,21.73
2022-10-25T07:31:44.830Z,19.77
2022-10-25T07:34:14.710Z,19.05
2022-10-25T07:36:43.138Z,21.73
2022-10-25T07:39:10.878Z,20.25
2022-10-25T07:41:39.005Z,19.90
2022-10-25T07:44:09.563Z,23.63
2022-10-25T07:49:07.861Z,22.35
2022-10-25T07:51:35.930Z,21.20
2022-10-25T07:54:04.315Z,20.88
2022-10-25T07:56:33.387Z,23.38
2022-10-25T07:59:01.841Z,20.83
2022-10-25T08:01:30.386Z,19.02
2022-10-25T08:03:58.279Z,18.63
2022-10-25T08:06:26.965Z,22.90
2022-10-25T08:08:55.052Z,18.17
2022-10-25T08:11:23.776Z,16.50
2022-10-25T08:13:52.008Z,20.30
2022-10-25T08:16:20.781Z,21.02
2022-10-25T08:18:49.413Z,20.23
2022-10-25T08:21:17.703Z,18.15
2022-10-25T08:23:45.406Z,21.92
2022-10-25T08:26:15.809Z,18.17
2022-10-25T08:28:44.393Z,17.42
2022-10-25T08:31:12.530Z,16.75
2022-10-25T08:33:40.900Z,20.02
2022-10-25T08:36:09.916Z,17.40
2022-10-25T08:38:37.832Z,18.70
2022-10-25T08:41:15.285Z,24.77
2022-10-25T08:44:18.341Z,19.42
2022-10-25T08:46:56.994Z,13.27
2022-10-25T08:49:38.725Z,18.98
2022-10-25T08:52:30.941Z,19.47
2022-10-25T08:55:04.651Z,23.60
2022-10-25T08:57:35.334Z,19.90
2022-10-25T09:00:10.805Z,20.35
2022-10-25T09:02:45.206Z,18.42
2022-10-25T09:05:40.020Z,19.80
2022-10-25T09:08:46.123Z,20.00
2022-10-25T09:11:32.094Z,23.50
2022-10-25T09:14:09.121Z,21.00
2022-10-25T09:16:51.950Z,26.02
2022-10-25T09:21:54.194Z,25.98
2022-10-25T09:24:30.919Z,21.00
2022-10-25T09:27:14.491Z,25.73
2022-10-25T09:29:54.170Z,22.73
2022-10-25T09:32:32.621Z,22.48
2022-10-25T09:35:02.166Z,20.98
2022-10-25T09:37:42.629Z,21.75
2022-10-25T09:40:19.533Z,25.63
2022-10-25T09:42:57.248Z,20.92
2022-10-25T09:45:38.470Z,20.70
2022-10-25T09:48:22.824Z,26.50
2022-10-25T09:51:13.406Z,20.13
2022-10-25T09:53:42.651Z,22.58
2022-10-25T09:56:10.860Z,22.73
2022-10-25T09:58:45.399Z,20.13
2022-10-25T10:01:30.040Z,22.08
2022-10-25T10:04:05.345Z,19.60
2022-10-25T10:06:36.839Z,21.65
2022-10-25T10:09:07.383Z,19.75
2022-10-25T10:11:36.830Z,20.15
2022-10-25T10:14:14.898Z,22.83
2022-10-25T10:16:47.159Z,20.92
2022-10-25T10:19:18.872Z,23.17
2022-10-25T10:21:51.943Z,20.80
2022-10-25T10:24:23.599Z,28.65
2022-10-25T10:26:55.901Z,20.97
2022-10-25T10:29:27.582Z,18.67
2022-10-25T10:32:20.810Z,21.35
2022-10-25T10:34:54.517Z,23.58
2022-10-25T10:37:25.050Z,21.67
2022-10-25T10:39:52.986Z,19.20
2022-10-25T10:42:32.470Z,16.75
2022-10-25T10:45:08.468Z,24.20
2022-10-25T10:47:38.926Z,23.15
2022-10-25T10:50:33.111Z,15.43
2022-10-25T10:53:09.546Z,21.67
2022-10-25T10:55:59.008Z,17.83
2022-10-25T10:58:29.997Z,19.30
2022-10-25T11:01:04.614Z,18.45
2022-10-25T11:03:49.139Z,22.95
2022-10-25T11:06:37.096Z,18.10
2022-10-25T11:09:08.840Z,21.33
2022-10-25T11:11:37.071Z,17.38
2022-10-25T11:14:17.206Z,18.80
2022-10-25T11:17:15.297Z,20.15
2022-10-25T11:20:03.950Z,19.45
2022-10-25T11:22:54.373Z,20.38
2022-10-25T11:25:34.897Z,19.98
2022-10-25T11:28:12.537Z,16.27
2022-10-25T11:30:52.480Z,15.55
2022-10-25T11:33:26.147Z,20.55
2022-10-25T11:36:00.527Z,15.30
2022-10-25T11:38:47.561Z,19.52
2022-10-25T11:41:24.196Z,16.17
2022-10-25T11:44:18.851Z,17.05
2022-10-25T11:47:08.336Z,14.85
2022-10-25T11:49:57.056Z,17.75
2022-10-25T11:53:00.834Z,18.40
2022-10-25T11:55:52.559Z,18.10
2022-10-25T11:58:58.560Z,15.52
2022-10-25T12:01:50.844Z,20.23
2022-10-25T12:04:26.888Z,18.70
2022-10-25T12:07:01.276Z,10.73
2022-10-25T12:09:48.466Z,16.15
2022-10-25T12:12:24.934Z,17.40
2022-10-25T12:14:55.821Z,16.20
2022-10-25T12:17:28.547Z,16.13
2022-10-25T12:20:02.104Z,24.67
2022-10-25T12:22:45.692Z,15.75
2022-10-25T12:25:37.972Z,17.30
2022-10-25T12:28:29.533Z,37.43
2022-10-25T12:31:01.653Z,13.55
2022-10-25T12:33:42.142Z,22.52
2022-10-25T12:36:21.030Z,17.23
2022-10-25T12:38:49.164Z,14.80
2022-10-25T12:41:24.170Z,14.95
2022-10-25T12:44:10.627Z,18.65
2022-10-25T12:47:02.227Z,20.85
2022-10-25T12:49:45.929Z,19.58
2022-10-25T12:55:08.818Z,17.83
2022-10-25T12:58:01.379Z,23.73
2022-10-25T13:00:50.819Z,21.25
2022-10-25T13:03:27.350Z,18.17
2022-10-25T13:05:58.437Z,15.10
2022-10-25T13:08:27.141Z,20.65
2022-10-25T13:11:13.226Z,18.00
2022-10-25T13:13:56.743Z,17.15
2022-10-25T13:16:31.438Z,31.90
2022-10-25T13:22:34.247Z,16.02
2022-10-25T13:25:09.152Z,14.57
2022-10-25T13:27:38.933Z,14.30
2022-10-25T13:30:07.700Z,13.40
2022-10-25T13:32:38.064Z,15.23
2022-10-25T13:35:38.608Z,15.93
2022-10-25T13:38:08.450Z,19.92
2022-10-25T13:40:38.887Z,16.17
2022-10-25T13:43:20.793Z,13.77
2022-10-25T13:45:55.063Z,12.38
2022-10-25T13:48:30.778Z,14.77
2022-10-25T13:51:17.169Z,15.80
2022-10-25T13:53:46.919Z,15.52
2022-10-25T13:56:16.468Z,14.95
2022-10-25T13:58:47.499Z,13.27
2022-10-25T14:01:18.970Z,17.17
2022-10-25T14:03:50.331Z,12.18
2022-10-25T14:06:34.821Z,14.98
2022-10-25T14:09:13.362Z,14.10
2022-10-25T14:11:48.459Z,14.93
2022-10-25T14:14:27.550Z,14.02
2022-10-25T14:17:27.339Z,20.63
2022-10-25T14:20:01.345Z,15.00
2022-10-25T14:22:35.113Z,13.52
2022-10-25T14:27:50.190Z,12.48
2022-10-25T14:30:39.563Z,11.70
2022-10-25T14:33:24.313Z,9.68
2022-10-25T14:36:18.408Z,11.10
2022-10-25T14:38:58.140Z,7.63
2022-10-25T14:41:31.668Z,18.23
2022-10-25T14:44:02.433Z,12.95
2022-10-25T14:46:31.079Z,14.13
2022-10-25T14:49:01.488Z,9.75
2022-10-25T14:51:32.357Z,10.77
2022-10-25T14:54:16.724Z,26.25
2022-10-25T14:56:51.787Z,22.42
2022-10-25T14:59:42.715Z,49.83
2022-10-25T15:02:18.561Z,17.55
2022-10-25T15:04:49.517Z,35.33
2022-10-25T15:07:30.904Z,19.58
2022-10-25T15:10:01.170Z,16.98
2022-10-25T15:12:33.735Z,30.00
2022-10-25T15:15:32.835Z,15.15
2022-10-25T15:18:00.862Z,15.75
2022-10-25T15:20:31.299Z,12.25
2022-10-25T15:23:06.020Z,16.63
2022-10-25T15:25:38.640Z,15.93
2022-10-25T15:28:14.144Z,12.93
2022-10-25T15:30:48.510Z,15.02
2022-10-25T15:33:19.258Z,15.05
2022-10-25T15:35:51.819Z,16.52
2022-10-25T15:38:19.623Z,17.97
2022-10-25T15:40:49.292Z,13.20
2022-10-25T15:43:17.114Z,14.23
2022-10-25T15:45:45.322Z,13.30
2022-10-25T15:48:20.694Z,17.65
2022-10-25T15:50:54.223Z,16.08
2022-10-25T15:53:24.681Z,16.17
2022-10-25T15:55:53.381Z,14.27
2022-10-25T15:58:21.329Z,12.02
2022-10-25T16:00:52.301Z,13.98
2022-10-25T16:03:22.889Z,14.50
2022-10-25T16:05:52.607Z,12.02
2022-10-25T16:08:20.940Z,10.35
2022-10-25T16:10:49.738Z,12.52
2022-10-25T16:13:25.221Z,12.23
2022-10-25T16:15:53.953Z,12.55
2022-10-25T16:18:22.028Z,14.48
2022-10-25T16:20:50.409Z,12.70
2022-10-25T16:23:19.110Z,14.32
2022-10-25T16:25:47.834Z,10.60
2022-10-25T16:28:15.658Z,16.70
2022-10-25T16:30:46.094Z,9.35
2022-10-25T16:33:14.736Z,11.27
2022-10-25T16:35:43.277Z,19.30
2022-10-25T16:38:11.317Z,11.80
2022-10-25T16:40:39.810Z,13.35
2022-10-25T16:43:09.086Z,10.05
2022-10-25T16:45:37.991Z,13.10
2022-10-25T16:48:06.267Z,13.45
2022-10-25T16:50:35.131Z,13.85
2022-10-25T16:53:07.373Z,12.05
2022-10-25T16:55:36.092Z,15.07
2022-10-25T16:58:04.132Z,12.50
2022-10-25T17:00:35.825Z,16.23
2022-10-25T17:03:03.935Z,15.65
2022-10-25T17:05:33.773Z,18.90
2022-10-25T17:08:01.238Z,14.23
2022-10-25T17:10:30.022Z,14.25
2022-10-25T17:13:05.519Z,12.00
2022-10-25T17:15:34.089Z,14.65
2022-10-25T17:18:02.021Z,16.60
2022-10-25T17:20:30.558Z,16.08
2022-10-25T17:22:58.342Z,13.10
2022-10-25T17:25:26.830Z,14.10
2022-10-25T17:27:54.713Z,15.82
2022-10-25T17:30:23.219Z,13.43
2022-10-25T17:32:51.149Z,22.27
2022-10-25T17:35:27.037Z,14.60
2022-10-25T17:37:58.105Z,12.93
2022-10-25T17:40:26.226Z,14.48
2022-10-25T17:42:54.629Z,13.60
2022-10-25T17:45:23.407Z,9.73
2022-10-25T17:47:51.577Z,10.70
2022-10-25T17:50:21.373Z,12.18
2022-10-25T17:52:51.277Z,13.13
2022-10-25T17:55:19.677Z,9.48
2022-10-25T17:57:48.365Z,14.65
2022-10-25T18:00:17.230Z,15.15
2022-10-25T18:02:50.941Z,15.82
2022-10-25T18:05:21.346Z,18.35
2022-10-25T18:07:50.388Z,16.95
2022-10-25T18:10:19.680Z,18.42
2022-10-25T18:12:47.708Z,14.18
2022-10-25T18:15:16.373Z,13.48
2022-10-25T18:17:47.158Z,16.67
2022-10-25T18:20:16.386Z,15.25
2022-10-25T18:22:45.040Z,13.60
2022-10-25T18:25:13.820Z,14.55
2022-10-25T18:27:41.681Z,16.13
2022-10-25T18:30:11.222Z,10.88
2022-10-25T18:32:39.785Z,15.02
2022-10-25T18:35:09.595Z,15.00
2022-10-25T18:37:38.328Z,17.13
2022-10-25T18:40:07.940Z,14.07
2022-10-25T18:42:36.721Z,17.55
2022-10-25T18:45:05.861Z,14.63
2022-10-25T18:47:34.026Z,17.05
2022-10-25T18:50:02.404Z,15.65
2022-10-25T18:52:30.299Z,16.75
2022-10-25T18:54:58.439Z,16.85
2022-10-25T18:57:26.517Z,22.27
2022-10-25T18:59:54.869Z,18.77
2022-10-25T19:02:22.936Z,20.90
2022-10-25T19:04:51.508Z,20.20
2022-10-25T19:07:19.272Z,21.15
2022-10-25T19:09:47.479Z,18.20
2022-10-25T19:12:15.538Z,15.57
2022-10-25T19:14:44.013Z,33.38
2022-10-25T19:17:13.269Z,26.35
2022-10-25T19:19:41.583Z,14.02
2022-10-25T19:22:09.562Z,12.77
2022-10-25T19:24:38.815Z,16.77
2022-10-25T19:27:06.716Z,17.50
2022-10-25T19:29:35.592Z,15.27
2022-10-25T19:32:03.691Z,15.52
2022-10-25T19:34:32.845Z,19.38
2022-10-25T19:37:05.053Z,13.75
2022-10-25T19:39:35.345Z,13.98
2022-10-25T19:42:04.048Z,16.25
2022-10-25T19:44:32.585Z,17.90
2022-10-25T19:47:00.632Z,16.15
2022-10-25T19:49:30.169Z,18.52
2022-10-25T19:51:58.145Z,15.55
2022-10-25T19:54:26.601Z,17.13
2022-10-25T19:56:55.613Z,17.02
2022-10-25T19:59:23.924Z,16.73
2022-10-25T20:01:52.337Z,17.52
2022-10-25T20:04:21.494Z,15.73
2022-10-25T20:06:49.472Z,17.05
2022-10-25T20:09:17.929Z,18.17
2022-10-25T20:11:45.866Z,20.67
2022-10-25T20:14:14.610Z,23.00
2022-10-25T20:16:42.238Z,21.50
2022-10-25T20:19:13.731Z,18.63
2022-10-25T20:21:41.619Z,17.02
2022-10-25T20:24:10.349Z,19.30
2022-10-25T20:26:41.194Z,16.17
2022-10-25T20:29:18.504Z,14.85
2022-10-25T20:31:50.978Z,14.07
2022-10-25T20:34:20.467Z,14.85
2022-10-25T20:36:49.411Z,15.65
2022-10-25T20:39:17.715Z,16.90
2022-10-25T20:41:46.651Z,16.90
2022-10-25T20:44:15.119Z,19.00
2022-10-25T20:46:43.839Z,12.63
2022-10-25T20:49:12.554Z,18.90
2022-10-25T20:51:40.505Z,13.13
2022-10-25T20:54:10.129Z,14.35
2022-10-25T20:56:39.961Z,21.48
2022-10-25T20:59:10.463Z,16.52
2022-10-25T21:01:39.004Z,14.80
2022-10-25T21:04:09.283Z,16.25
2022-10-25T21:06:37.639Z,17.20
2022-10-25T21:09:06.217Z,19.70
2022-10-25T21:11:33.953Z,14.23
2022-10-25T21:14:02.944Z,20.65
2022-10-25T21:16:31.679Z,17.40
2022-10-25T21:19:03.414Z,21.75
2022-10-25T21:21:31.827Z,20.40
2022-10-25T21:24:00.544Z,18.33
2022-10-25T21:26:28.744Z,17.45
2022-10-25T21:28:57.156Z,15.80
2022-10-25T21:31:25.028Z,19.40
2022-10-25T21:33:58.668Z,19.33
2022-10-25T21:36:27.839Z,16.77
2022-10-25T21:38:56.368Z,23.35
2022-10-25T21:41:27.956Z,15.95
2022-10-25T21:43:57.978Z,16.10
2022-10-25T21:46:27.755Z,15.95
2022-10-25T21:48:56.246Z,16.88
2022-10-25T21:51:27.705Z,16.98
2022-10-25T21:53:56.482Z,18.50
2022-10-25T21:56:31.305Z,20.65
2022-10-25T21:59:00.826Z,21.65
2022-10-25T22:01:30.729Z,18.27
2022-10-25T22:04:00.159Z,21.55
2022-10-25T22:06:28.656Z,18.58
2022-10-25T22:08:57.789Z,21.13
2022-10-25T22:11:27.454Z,20.98
2022-10-25T22:14:14.676Z,23.25
2022-10-25T22:16:42.690Z,20.63
2022-10-25T22:19:20.947Z,25.67
2022-10-25T22:21:50.575Z,22.05
2022-10-25T22:24:18.715Z,23.60
2022-10-25T22:26:47.229Z,24.13
2022-10-25T22:29:15.553Z,27.17
2022-10-25T22:31:43.277Z,24.55
2022-10-25T22:34:11.486Z,22.67
2022-10-25T22:36:42.050Z,25.10
2022-10-25T22:39:10.673Z,25.60
2022-10-25T22:41:39.209Z,24.52
2022-10-25T22:44:07.505Z,28.00
2022-10-25T22:46:36.586Z,23.00
2022-10-25T22:49:07.388Z,27.13
2022-10-25T22:51:36.907Z,26.38
2022-10-25T22:54:05.618Z,28.73
2022-10-25T22:56:34.667Z,27.02
2022-10-25T22:59:04.991Z,28.30
2022-10-25T23:01:35.642Z,27.55
2022-10-25T23:04:06.313Z,27.48
2022-10-25T23:06:36.654Z,32.58
2022-10-25T23:09:07.348Z,32.92
2022-10-25T23:11:37.119Z,32.75
2022-10-25T23:14:05.852Z,30.02
2022-10-25T23:16:33.670Z,33.15
2022-10-25T23:19:02.202Z,36.58
2022-10-25T23:21:31.147Z,33.90
2022-10-25T23:24:00.523Z,27.45
2022-10-25T23:26:36.501Z,33.33
2022-10-25T23:29:04.906Z,30.00
2022-10-25T23:31:32.908Z,33.47
2022-10-25T23:34:02.287Z,32.70
2022-10-25T23:36:38.139Z,33.13
2022-10-25T23:39:07.810Z,30.13
2022-10-25T23:41:35.756Z,36.08
2022-10-25T23:44:04.373Z,34.92
2022-10-25T23:46:32.337Z,33.53
2022-10-25T23:49:00.539Z,35.60
2022-10-25T23:51:28.388Z,39.42
2022-10-25T23:53:56.299Z,44.70
2022-10-25T23:56:24.166Z,40.65
2022-10-25T23:58:53.886Z,44.22
